Time;durP1;ratioP1;P1;durP2;ratioP2;P2;SDS_P1;SDS_P2;PMS_P1;PMS_P2;Temp;Humidity;BMP_temperature;BMP_pressure;BME280_temperature;BME280_humidity;BME280_pressure;Samples;Min_cycle;Max_cycle;Signal;HPM_P1;HPM_P2
2022/09/29 00:01:14;;;;;;;4.17;2.20;;;;;;;10.50;100.00;96600.89;1774649;80;20996;-87
2022/09/29 00:03:40;;;;;;;5.10;2.55;;;;;;;10.50;100.00;96605.75;1744884;80;21027;-87
2022/09/29 00:06:14;;;;;;;5.22;2.45;;;;;;;10.43;100.00;96592.69;1725851;83;21514;-84
2022/09/29 00:08:40;;;;;;;4.12;2.77;;;;;;;10.40;100.00;96590.58;1734061;82;21012;-85
2022/09/29 00:11:10;;;;;;;4.10;2.45;;;;;;;10.36;100.00;96600.45;1734547;82;21374;-85
2022/09/29 00:13:36;;;;;;;5.65;2.50;;;;;;;10.34;100.00;96599.15;1734076;82;20988;-86
2022/09/29 00:16:02;;;;;;;4.03;2.35;;;;;;;10.31;100.00;96603.29;1734363;82;20968;-84
2022/09/29 00:18:29;;;;;;;4.47;2.70;;;;;;;10.33;100.00;96598.35;1734092;82;20989;-84
2022/09/29 00:21:01;;;;;;;4.50;2.77;;;;;;;10.30;100.00;96607.11;1734489;82;20981;-88
2022/09/29 00:23:27;;;;;;;4.20;2.77;;;;;;;10.28;100.00;96607.19;1747303;81;21062;-84
2022/09/29 00:26:09;;;;;;;4.40;2.90;;;;;;;10.28;100.00;96607.19;1775176;80;21010;-87
2022/09/29 00:28:35;;;;;;;3.60;2.60;;;;;;;10.26;100.00;96609.41;1756012;80;21510;-88
2022/09/29 00:31:02;;;;;;;4.53;3.00;;;;;;;10.27;100.00;96609.66;1753111;81;21057;-84
2022/09/29 00:33:32;;;;;;;6.65;3.00;;;;;;;10.24;100.00;96608.34;1730577;81;20978;-84
2022/09/29 00:36:02;;;;;;;4.83;2.92;;;;;;;10.27;100.00;96606.95;1753111;81;21120;-83
2022/09/29 00:38:29;;;;;;;3.60;2.55;;;;;;;10.27;100.00;96603.68;1755811;80;20974;-84
2022/09/29 00:40:55;;;;;;;6.70;3.15;;;;;;;10.22;100.00;96605.69;1753286;81;20960;-85
2022/09/29 00:43:45;;;;;;;9.95;4.00;;;;;;;10.22;100.00;96611.92;1756043;80;20958;-83
2022/09/29 00:46:12;;;;;;;9.38;4.45;;;;;;;10.23;100.00;96612.72;1769267;81;20973;-87
2022/09/29 00:48:38;;;;;;;8.85;5.03;;;;;;;10.20;100.00;96615.48;1768945;79;21896;-87
2022/09/29 00:51:04;;;;;;;5.65;3.33;;;;;;;10.25;100.00;96623.48;1769668;81;20933;-87
2022/09/29 00:53:30;;;;;;;6.80;5.05;;;;;;;10.29;100.00;96624.47;1769102;79;21634;-85
2022/09/29 00:56:00;;;;;;;7.97;4.35;;;;;;;10.30;100.00;96627.41;1769295;81;21515;-87
2022/09/29 00:58:38;;;;;;;8.85;4.62;;;;;;;10.33;100.00;96632.20;1768533;79;21017;-84
2022/09/29 01:01:04;;;;;;;6.93;4.50;;;;;;;10.32;100.00;96625.19;1769433;81;21151;-86
2022/09/29 01:03:34;;;;;;;5.62;4.12;;;;;;;10.30;100.00;96632.03;1737370;81;21069;-87
2022/09/29 01:06:04;;;;;;;10.28;4.67;;;;;;;10.30;100.00;96636.89;1721623;82;20982;-85
2022/09/29 01:08:52;;;;;;;7.12;4.30;;;;;;;10.30;100.00;96645.57;1721117;82;21483;-84
2022/09/29 01:11:19;;;;;;;7.80;5.70;;;;;;;10.30;100.00;96652.34;1721549;83;20990;-84
2022/09/29 01:13:45;;;;;;;10.58;5.35;;;;;;;10.32;100.00;96662.30;1721272;82;21024;-84
2022/09/29 01:16:11;;;;;;;8.43;4.87;;;;;;;10.32;100.00;96663.65;1721532;82;20954;-84
2022/09/29 01:18:37;;;;;;;8.60;5.15;;;;;;;10.31;100.00;96670.97;1721438;82;21037;-86
2022/09/29 01:21:45;;;;;;;6.05;4.35;;;;;;;10.31;100.00;96661.50;1721718;82;21495;-87
2022/09/29 01:24:45;;;;;;;7.80;4.65;;;;;;;10.31;100.00;96656.64;1695982;84;20981;-87
2022/09/29 01:27:34;;;;;;;6.65;4.33;;;;;;;10.28;100.00;96658.06;1791561;80;21294;-84
2022/09/29 01:30:17;;;;;;;8.05;4.62;;;;;;;10.27;100.00;96667.86;1794342;80;20984;-84
2022/09/29 01:33:01;;;;;;;8.25;4.35;;;;;;;10.22;100.00;96671.48;1794248;80;20972;-87
2022/09/29 01:35:52;;;;;;;9.03;5.05;;;;;;;10.21;100.00;96668.50;1759089;81;21068;-86
2022/09/29 01:38:46;;;;;;;6.58;4.37;;;;;;;10.20;100.00;96667.47;1758880;81;21028;-84
2022/09/29 01:41:24;;;;;;;9.28;5.20;;;;;;;10.15;100.00;96665.67;1774889;80;21126;-84
2022/09/29 01:44:13;;;;;;;6.97;4.75;;;;;;;10.08;100.00;96663.95;1759185;80;20984;-87
2022/09/29 01:46:47;;;;;;;8.43;5.85;;;;;;;10.04;100.00;96669.20;1746632;81;21004;-87
2022/09/29 01:49:13;;;;;;;10.95;5.30;;;;;;;9.97;100.00;96675.59;1771815;80;21010;-84
2022/09/29 01:51:43;;;;;;;7.92;4.53;;;;;;;9.95;100.00;96676.45;1774903;80;21000;-85
2022/09/29 01:54:23;;;;;;;12.68;5.78;;;;;;;9.94;100.00;96675.41;1774624;80;21021;-83
2022/09/29 01:56:53;;;;;;;7.58;3.92;;;;;;;9.89;100.00;96670.91;1774820;80;21000;-87
2022/09/29 01:59:44;;;;;;;5.35;3.15;;;;;;;9.86;100.00;96671.54;1758777;81;21048;-87
2022/09/29 02:02:15;;;;;;;5.50;3.35;;;;;;;9.84;100.00;96671.85;1770231;80;20986;-86
2022/09/29 02:04:50;;;;;;;5.62;3.20;;;;;;;9.80;100.00;96668.70;1698137;83;20967;-84
2022/09/29 02:07:26;;;;;;;5.05;3.45;;;;;;;9.78;100.00;96674.42;1734329;81;21138;-87
2022/09/29 02:09:56;;;;;;;3.47;2.15;;;;;;;9.80;100.00;96680.88;1734180;82;21015;-87
2022/09/29 02:12:24;;;;;;;6.30;4.22;;;;;;;9.80;100.00;96680.88;1734317;82;21354;-84
2022/09/29 02:14:50;;;;;;;4.83;3.50;;;;;;;9.81;100.00;96685.17;1734408;82;21036;-87
2022/09/29 02:17:24;;;;;;;8.18;4.20;;;;;;;9.83;100.00;96687.84;1734356;82;22538;-86
2022/09/29 02:19:50;;;;;;;7.03;4.35;;;;;;;9.82;100.00;96691.63;1734344;82;21154;-88
2022/09/29 02:22:16;;;;;;;6.08;3.98;;;;;;;9.82;100.00;96690.27;1739818;80;21203;-83
2022/09/29 02:24:42;;;;;;;14.73;7.58;;;;;;;9.82;100.00;96686.22;1774508;80;20909;-84
2022/09/29 02:27:08;;;;;;;13.22;5.67;;;;;;;9.79;100.00;96679.28;1774912;80;20854;-84
2022/09/29 02:29:35;;;;;;;6.92;4.12;;;;;;;9.77;100.00;96679.59;1774580;80;21083;-83
2022/09/29 02:32:03;;;;;;;5.50;3.30;;;;;;;9.72;100.00;96674.84;1774865;80;22007;-84
2022/09/29 02:34:30;;;;;;;7.40;3.77;;;;;;;9.65;100.00;96681.22;1727785;83;21559;-87
2022/09/29 02:37:10;;;;;;;6.35;4.00;;;;;;;9.61;100.00;96676.44;1709599;83;21432;-84
2022/09/29 02:40:05;;;;;;;10.45;4.35;;;;;;;9.60;100.00;96681.60;1727259;82;20989;-87
2022/09/29 02:42:52;;;;;;;6.25;4.10;;;;;;;9.58;100.00;96680.31;1719567;83;20986;-87
2022/09/29 02:45:49;;;;;;;6.87;4.22;;;;;;;9.54;100.00;96679.31;1719440;83;21097;-86
2022/09/29 02:48:47;;;;;;;5.62;3.58;;;;;;;9.52;100.00;96678.27;1719611;82;20910;-84
2022/09/29 02:51:32;;;;;;;6.80;3.40;;;;;;;9.49;100.00;96672.69;1719911;82;20963;-87
2022/09/29 02:54:34;;;;;;;7.78;4.00;;;;;;;9.45;100.00;96673.83;1719670;82;21025;-87
2022/09/29 02:57:23;;;;;;;11.43;3.58;;;;;;;9.41;100.00;96672.85;1719940;82;21441;-87
2022/09/29 03:00:09;;;;;;;6.58;3.90;;;;;;;9.39;100.00;96672.33;1691200;83;21144;-84
2022/09/29 03:02:37;;;;;;;7.05;3.75;;;;;;;9.35;100.00;96669.20;1723846;81;21026;-87
2022/09/29 03:05:07;;;;;;;6.90;3.95;;;;;;;9.33;100.00;96667.61;1734157;82;20986;-87
2022/09/29 03:07:33;;;;;;;6.08;4.15;;;;;;;9.30;100.00;96666.05;1734012;81;21021;-87
2022/09/29 03:09:59;;;;;;;7.22;4.80;;;;;;;9.25;100.00;96669.68;1734063;82;21423;-84
2022/09/29 03:12:25;;;;;;;5.22;3.70;;;;;;;9.25;100.00;96669.68;1734426;81;21155;-84
2022/09/29 03:14:51;;;;;;;7.28;4.30;;;;;;;9.26;100.00;96675.33;1734077;82;20950;-87
2022/09/29 03:17:17;;;;;;;7.15;5.42;;;;;;;9.27;100.00;96676.92;1734407;81;20998;-86
2022/09/29 03:19:43;;;;;;;6.05;4.05;;;;;;;9.23;100.00;96678.65;1734117;82;21011;-87
2022/09/29 03:22:09;;;;;;;6.17;3.90;;;;;;;9.24;100.00;96674.04;1734412;81;21636;-84
2022/09/29 03:24:35;;;;;;;6.35;3.42;;;;;;;9.24;100.00;96681.59;1735059;82;21316;-86
2022/09/29 03:27:01;;;;;;;5.95;3.95;;;;;;;9.22;100.00;96681.62;1735170;82;21029;-84
2022/09/29 03:29:27;;;;;;;7.95;4.30;;;;;;;9.22;100.00;96682.42;1734932;82;20969;-84
2022/09/29 03:31:53;;;;;;;6.28;4.08;;;;;;;9.20;100.00;96672.48;1735225;82;20867;-87
2022/09/29 03:34:19;;;;;;;8.45;5.80;;;;;;;9.22;100.00;96679.73;1734818;82;20989;-87
2022/09/29 03:36:44;;;;;;;11.65;7.47;;;;;;;9.21;100.00;96675.42;1735427;82;21168;-87
2022/09/29 03:39:10;;;;;;;20.52;12.43;;;;;;;9.23;100.00;96680.55;1735238;82;20973;-83
2022/09/29 03:41:36;;;;;;;21.90;12.15;;;;;;;9.27;100.00;96684.23;1735176;82;21473;-84
2022/09/29 03:44:02;;;;;;;20.08;11.50;;;;;;;9.28;100.00;96682.58;1734996;82;20882;-83
2022/09/29 03:46:28;;;;;;;24.63;11.78;;;;;;;9.32;100.00;96684.14;1734758;82;20925;-84
2022/09/29 03:48:54;;;;;;;18.15;10.65;;;;;;;9.29;100.00;96688.23;1734916;82;21540;-84
2022/09/29 03:51:20;;;;;;;19.73;10.82;;;;;;;9.31;100.00;96682.52;1735100;82;20902;-87
2022/09/29 03:53:46;;;;;;;15.25;9.13;;;;;;;9.31;100.00;96679.28;1735017;82;21028;-87
2022/09/29 03:56:12;;;;;;;17.05;10.08;;;;;;;9.29;100.00;96674.71;1735069;82;20895;-86
2022/09/29 03:58:37;;;;;;;12.50;8.00;;;;;;;9.30;100.00;96664.14;1735038;82;21060;-84
2022/09/29 04:01:03;;;;;;;11.70;7.37;;;;;;;9.27;100.00;96672.08;1735154;82;21163;-87
2022/09/29 04:03:29;;;;;;;12.40;6.95;;;;;;;9.22;100.00;96670.82;1734251;81;20954;-87
2022/09/29 04:05:55;;;;;;;15.50;7.70;;;;;;;9.17;100.00;96664.19;1734482;82;21573;-84
2022/09/29 04:08:21;;;;;;;9.73;5.85;;;;;;;9.13;100.00;96658.57;1734140;81;20872;-84
2022/09/29 04:10:47;;;;;;;7.45;4.90;;;;;;;9.16;100.00;96663.95;1734456;82;20975;-86
2022/09/29 04:13:13;;;;;;;10.48;7.10;;;;;;;9.15;100.00;96669.91;1734195;81;21303;-84
2022/09/29 04:15:39;;;;;;;11.75;7.65;;;;;;;9.16;100.00;96674.20;1734059;82;20883;-84
2022/09/29 04:18:05;;;;;;;10.18;5.78;;;;;;;9.16;100.00;96670.14;1734603;81;20891;-84
2022/09/29 04:20:31;;;;;;;10.58;5.50;;;;;;;9.15;100.00;96671.81;1734012;82;20975;-87
2022/09/29 04:22:59;;;;;;;8.08;5.05;;;;;;;9.08;100.00;96669.51;1734443;81;21072;-83
2022/09/29 04:25:25;;;;;;;10.32;5.62;;;;;;;9.04;100.00;96669.84;1734761;82;21188;-87
2022/09/29 04:27:51;;;;;;;13.05;5.85;;;;;;;9.02;100.00;96672.86;1734889;82;21032;-86
2022/09/29 04:30:17;;;;;;;12.30;6.30;;;;;;;9.02;100.00;96677.46;1734869;82;20953;-87
2022/09/29 04:32:43;;;;;;;13.93;7.03;;;;;;;9.02;100.00;96680.97;1734937;82;20970;-85
2022/09/29 04:35:09;;;;;;;11.33;6.70;;;;;;;9.04;100.00;96684.70;1734872;82;21071;-87
2022/09/29 04:37:35;;;;;;;10.20;7.15;;;;;;;9.04;100.00;96689.56;1734932;82;21146;-87
2022/09/29 04:40:02;;;;;;;11.70;5.90;;;;;;;9.04;100.00;96688.20;1734730;82;20901;-84
2022/09/29 04:42:28;;;;;;;9.08;5.85;;;;;;;9.01;100.00;96692.87;1734936;82;20996;-87
2022/09/29 04:44:54;;;;;;;10.70;6.83;;;;;;;9.01;100.00;96696.13;1734855;82;20968;-86
2022/09/29 04:47:20;;;;;;;11.75;7.65;;;;;;;9.01;100.00;96700.98;1734907;82;20997;-87
2022/09/29 04:49:45;;;;;;;13.93;8.70;;;;;;;9.02;100.00;96709.34;1735000;82;21427;-84
2022/09/29 04:52:11;;;;;;;11.53;7.00;;;;;;;9.08;100.00;96706.54;1735095;82;20941;-84
2022/09/29 04:54:38;;;;;;;18.55;10.05;;;;;;;9.11;100.00;96708.08;1734931;82;21036;-84
2022/09/29 04:57:04;;;;;;;23.90;13.78;;;;;;;9.15;100.00;96710.99;1734805;82;21029;-84
2022/09/29 04:59:30;;;;;;;17.65;10.85;;;;;;;9.19;100.00;96719.53;1734964;82;21020;-87
2022/09/29 05:01:56;;;;;;;12.98;8.20;;;;;;;9.21;100.00;96728.69;1716564;81;21880;-86
2022/09/29 05:04:22;;;;;;;7.75;5.92;;;;;;;9.24;100.00;96726.20;1739833;81;20900;-83
2022/09/29 05:06:48;;;;;;;9.50;5.33;;;;;;;9.25;100.00;96723.73;1740650;81;21640;-83
2022/09/29 05:09:14;;;;;;;8.58;5.60;;;;;;;9.26;100.00;96723.19;1750368;80;20945;-87
2022/09/29 05:11:40;;;;;;;14.25;7.30;;;;;;;9.22;100.00;96715.41;1735887;81;21598;-83
2022/09/29 05:14:05;;;;;;;10.98;7.28;;;;;;;9.23;100.00;96713.78;1743924;80;21495;-86
2022/09/29 05:16:31;;;;;;;18.35;9.25;;;;;;;9.23;100.00;96717.05;1700795;82;21035;-87
2022/09/29 05:18:57;;;;;;;16.85;8.05;;;;;;;9.25;100.00;96724.30;1755319;80;20912;-84
2022/09/29 05:21:23;;;;;;;12.93;7.47;;;;;;;9.27;100.00;96723.43;1744098;81;21543;-87
2022/09/29 05:23:49;;;;;;;19.48;9.80;;;;;;;9.25;100.00;96719.69;1729724;81;21040;-83
2022/09/29 05:26:15;;;;;;;11.57;7.37;;;;;;;9.26;100.00;96714.52;1733210;81;21163;-86
2022/09/29 05:28:46;;;;;;;11.95;7.17;;;;;;;9.29;100.00;96718.52;1733703;81;20963;-87
2022/09/29 05:31:12;;;;;;;10.90;6.87;;;;;;;9.27;100.00;96719.38;1740686;81;21064;-86
2022/09/29 05:33:38;;;;;;;10.88;6.75;;;;;;;9.26;100.00;96719.13;1733943;81;21111;-83
2022/09/29 05:36:07;;;;;;;14.80;8.03;;;;;;;9.26;100.00;96713.72;1752461;80;20914;-83
2022/09/29 05:38:34;;;;;;;10.60;7.03;;;;;;;9.25;100.00;96710.78;1743518;81;21793;-86
2022/09/29 05:41:04;;;;;;;12.53;8.38;;;;;;;9.26;100.00;96717.22;1724341;81;23327;-86
2022/09/29 05:43:30;;;;;;;12.78;7.55;;;;;;;9.28;100.00;96721.77;1760130;80;21513;-84
2022/09/29 05:46:01;;;;;;;11.73;8.23;;;;;;;9.30;100.00;96724.17;1739888;81;20952;-83
2022/09/29 05:48:30;;;;;;;10.90;8.15;;;;;;;9.32;100.00;96719.28;1721506;81;21684;-83
2022/09/29 05:50:57;;;;;;;12.33;7.12;;;;;;;9.35;100.00;96711.11;1723449;81;21877;-83
2022/09/29 05:53:23;;;;;;;10.63;7.45;;;;;;;9.36;100.00;96712.16;1721983;81;21143;-87
2022/09/29 05:55:49;;;;;;;14.38;7.60;;;;;;;9.40;100.00;96719.92;1725939;81;21044;-86
2022/09/29 05:58:15;;;;;;;12.07;6.67;;;;;;;9.45;100.00;96717.09;1729289;80;20920;-86
2022/09/29 06:00:41;;;;;;;11.18;7.55;;;;;;;9.45;100.00;96718.99;1729262;81;21085;-86
2022/09/29 06:03:07;;;;;;;13.10;7.55;;;;;;;9.43;100.00;96727.41;1726748;81;20948;-84
2022/09/29 06:05:38;;;;;;;11.48;7.78;;;;;;;9.43;100.00;96725.27;1725758;81;20990;-83
2022/09/29 06:08:04;;;;;;;12.82;8.48;;;;;;;9.45;100.00;96717.09;1705955;81;21013;-86
2022/09/29 06:10:31;;;;;;;13.03;8.50;;;;;;;9.48;100.00;96716.47;1730803;81;21102;-83
2022/09/29 06:12:57;;;;;;;12.85;7.80;;;;;;;9.48;100.00;96718.38;1727943;81;20972;-83
2022/09/29 06:15:23;;;;;;;12.65;9.50;;;;;;;9.45;100.00;96720.34;1734854;81;21130;-86
2022/09/29 06:17:59;;;;;;;13.55;10.03;;;;;;;9.43;100.00;96720.66;1736254;81;21016;-86
2022/09/29 06:20:26;;;;;;;18.48;13.60;;;;;;;9.43;100.00;96723.36;1728530;81;21102;-86
2022/09/29 06:22:55;;;;;;;14.68;11.22;;;;;;;9.45;100.00;96723.84;1731373;81;21094;-87
2022/09/29 06:25:22;;;;;;;14.63;10.60;;;;;;;9.47;100.00;96725.69;1721282;81;21005;-86
2022/09/29 06:27:47;;;;;;;13.38;9.73;;;;;;;9.45;100.00;96726.55;1724117;81;21548;-83
2022/09/29 06:30:14;;;;;;;11.53;7.60;;;;;;;9.46;100.00;96731.41;1730989;81;20946;-87
2022/09/29 06:32:40;;;;;;;12.25;9.35;;;;;;;9.46;100.00;96732.76;1735549;80;21526;-83
2022/09/29 06:37:53;;;;;;;11.68;8.55;;;;;;;9.47;100.00;96737.86;1726387;81;21455;-87
2022/09/29 06:40:20;;;;;;;11.43;8.37;;;;;;;9.45;100.00;96731.96;1726735;81;21425;-85
2022/09/29 06:42:46;;;;;;;12.18;7.72;;;;;;;9.47;100.00;96739.20;1723121;81;21070;-84
2022/09/29 06:45:12;;;;;;;14.50;8.75;;;;;;;9.52;100.00;96739.11;1722331;81;21526;-84
2022/09/29 06:47:38;;;;;;;13.08;9.23;;;;;;;9.56;100.00;96743.34;1730599;81;20944;-87
2022/09/29 06:50:05;;;;;;;11.95;8.20;;;;;;;9.62;100.00;96734.03;1728947;82;20889;-83
2022/09/29 06:52:31;;;;;;;13.43;7.90;;;;;;;9.64;100.00;96733.16;1730139;81;21850;-84
2022/09/29 06:54:57;;;;;;;9.70;7.15;;;;;;;9.71;100.00;96722.73;1732542;81;20940;-87
2022/09/29 06:57:24;;;;;;;9.85;6.85;;;;;;;9.76;100.00;96730.75;1725629;81;20991;-84
2022/09/29 06:59:49;;;;;;;10.68;6.62;;;;;;;9.81;100.00;96729.81;1734541;81;21008;-84
2022/09/29 07:02:15;;;;;;;13.22;7.20;;;;;;;9.83;100.00;96728.42;1724845;81;23267;-87
2022/09/29 07:04:41;;;;;;;9.60;7.65;;;;;;;9.90;100.00;96730.69;1721925;81;21082;-84
2022/09/29 07:07:07;;;;;;;11.78;8.58;;;;;;;9.94;100.00;96733.59;1724617;81;20940;-83
2022/09/29 07:09:33;;;;;;;11.28;8.35;;;;;;;9.98;100.00;96723.74;1721546;81;20909;-84
2022/09/29 07:11:59;;;;;;;12.82;8.70;;;;;;;10.05;100.00;96728.98;1721491;81;21669;-87
2022/09/29 07:14:25;;;;;;;12.13;7.55;;;;;;;10.06;100.00;96729.22;1724384;81;21130;-84
2022/09/29 07:16:51;;;;;;;14.25;7.37;;;;;;;10.12;100.00;96738.03;1733500;81;21038;-84
2022/09/29 07:19:18;;;;;;;11.88;6.95;;;;;;;10.08;100.00;96742.44;1716331;81;21095;-83
2022/09/29 07:21:45;;;;;;;10.15;7.85;;;;;;;10.09;100.00;96744.86;1731232;82;21046;-85
2022/09/29 07:24:11;;;;;;;9.55;7.08;;;;;;;10.12;100.00;96746.95;1720810;81;21040;-87
2022/09/29 07:26:38;;;;;;;8.23;7.35;;;;;;;10.12;100.00;96752.36;1727966;82;21074;-84
2022/09/29 07:29:04;;;;;;;10.43;7.10;;;;;;;10.12;100.00;96751.56;1731040;82;21130;-87
2022/09/29 07:31:30;;;;;;;12.75;6.92;;;;;;;10.12;100.00;96755.06;1737614;81;21000;-83
2022/09/29 07:33:56;;;;;;;10.35;7.12;;;;;;;10.16;100.00;96759.30;1729908;81;20908;-84
2022/09/29 07:36:22;;;;;;;13.75;8.30;;;;;;;10.08;100.00;96762.22;1724290;82;21596;-83
2022/09/29 07:38:50;;;;;;;14.78;8.35;;;;;;;10.08;100.00;96761.38;1728320;81;21001;-83
2022/09/29 07:41:17;;;;;;;10.78;7.40;;;;;;;10.06;100.00;96767.66;1733530;81;21765;-84
2022/09/29 07:43:43;;;;;;;10.15;7.87;;;;;;;10.06;100.00;96769.81;1712084;81;21005;-87
2022/09/29 07:46:09;;;;;;;9.70;6.50;;;;;;;10.05;100.00;96767.42;1723877;82;20925;-87
2022/09/29 07:48:35;;;;;;;12.40;8.38;;;;;;;10.07;100.00;96765.20;1730728;82;20915;-87
2022/09/29 07:51:04;;;;;;;10.48;7.12;;;;;;;10.06;100.00;96765.76;1728197;81;21125;-83
2022/09/29 07:53:30;;;;;;;12.82;7.45;;;;;;;10.11;100.00;96769.70;1722268;82;21305;-87
2022/09/29 07:55:55;;;;;;;10.85;6.22;;;;;;;10.23;100.00;96775.16;1731378;81;20882;-87
2022/09/29 07:58:21;;;;;;;8.20;6.22;;;;;;;10.34;100.00;96782.74;1746918;80;20961;-84
2022/09/29 08:00:55;;;;;;;10.88;6.42;;;;;;;10.48;100.00;96784.02;1730277;81;21583;-88
2022/09/29 08:03:22;;;;;;;11.88;6.90;;;;;;;10.60;100.00;96776.70;1733243;81;21040;-84
2022/09/29 08:05:48;;;;;;;12.33;6.65;;;;;;;10.68;100.00;96779.98;1732456;81;21130;-87
2022/09/29 08:08:14;;;;;;;10.53;7.60;;;;;;;10.71;100.00;96780.73;1763924;79;21586;-88
2022/09/29 08:10:40;;;;;;;10.45;7.95;;;;;;;10.69;100.00;96787.03;1713103;82;20927;-84
2022/09/29 08:13:05;;;;;;;10.40;6.67;;;;;;;10.75;100.00;96788.48;1743773;80;20909;-87
2022/09/29 08:15:31;;;;;;;9.78;7.37;;;;;;;10.79;100.00;96785.97;1755114;80;20988;-86
2022/09/29 08:17:57;;;;;;;11.38;6.08;;;;;;;10.72;100.00;96788.55;1733809;81;21123;-87
2022/09/29 08:20:25;;;;;;;8.78;6.35;;;;;;;10.74;100.00;96791.74;1753564;80;20943;-84
2022/09/29 08:22:51;;;;;;;7.40;5.10;;;;;;;10.72;100.00;96787.75;1756333;78;21110;-87
2022/09/29 08:25:17;;;;;;;6.45;4.87;;;;;;;10.68;100.00;96790.30;1753887;80;21455;-85
2022/09/29 08:27:44;;;;;;;9.15;5.28;;;;;;;10.74;100.00;96793.66;1732631;80;20886;-88
2022/09/29 08:30:11;;;;;;;7.58;4.70;;;;;;;10.78;100.00;96799.27;1694337;82;21821;-85
2022/09/29 08:32:37;;;;;;;8.73;5.10;;;;;;;10.85;100.00;96800.95;1730536;81;20981;-84
2022/09/29 08:35:05;;;;;;;7.22;5.33;;;;;;;10.89;100.00;96802.75;1765564;79;21132;-87
2022/09/29 08:37:31;;;;;;;5.95;3.95;;;;;;;10.94;100.00;96798.56;1767084;80;21452;-84
2022/09/29 08:39:57;;;;;;;6.85;3.83;;;;;;;11.03;100.00;96801.32;1762487;80;20875;-88
2022/09/29 08:42:47;;;;;;;6.35;4.10;;;;;;;11.08;100.00;96800.37;1764604;80;21307;-84
2022/09/29 08:45:18;;;;;;;5.05;4.30;;;;;;;11.11;100.00;96791.60;1751083;80;21112;-87
2022/09/29 08:47:46;;;;;;;6.87;3.60;;;;;;;11.11;100.00;96795.14;1729806;81;21560;-85
2022/09/29 08:50:35;;;;;;;6.37;4.72;;;;;;;11.24;100.00;96801.55;1723842;82;21471;-84
2022/09/29 08:53:06;;;;;;;6.42;4.37;;;;;;;11.32;100.00;96800.80;1723428;81;21033;-88
2022/09/29 08:56:03;;;;;;;9.53;4.87;;;;;;;11.50;100.00;96809.22;1717193;81;21461;-88
2022/09/29 08:58:29;;;;;;;5.80;4.05;;;;;;;11.65;100.00;96810.71;1753761;80;21110;-88
2022/09/29 09:01:06;;;;;;;6.25;3.98;;;;;;;11.85;100.00;96807.42;1752885;80;20896;-88
2022/09/29 09:04:06;;;;;;;6.87;3.92;;;;;;;11.95;100.00;96807.67;1768668;80;21088;-84
2022/09/29 09:07:06;;;;;;;8.53;3.90;;;;;;;12.14;100.00;96812.27;1763120;80;21045;-88
2022/09/29 09:10:04;;;;;;;7.70;4.33;;;;;;;12.20;100.00;96819.67;1761863;80;21370;-88
2022/09/29 09:12:41;;;;;;;11.20;6.05;;;;;;;12.26;100.00;96814.33;1748111;80;21118;-85
2022/09/29 09:15:42;;;;;;;8.65;4.50;;;;;;;12.37;100.00;96808.81;1750531;80;21509;-84
2022/09/29 09:18:47;;;;;;;8.15;4.80;;;;;;;12.48;100.00;96808.51;1758538;80;21008;-85
2022/09/29 09:21:26;;;;;;;7.90;4.53;;;;;;;12.48;100.00;96800.36;1764039;80;21049;-87
2022/09/29 09:23:54;;;;;;;8.48;4.12;;;;;;;12.62;100.00;96796.32;1767590;77;21512;-84
2022/09/29 09:26:26;;;;;;;7.33;4.58;;;;;;;12.80;100.00;96799.01;1752037;81;21492;-88
2022/09/29 09:29:00;;;;;;;7.28;4.45;;;;;;;12.85;100.00;96800.20;1739973;80;21154;-84
2022/09/29 09:31:40;;;;;;;6.60;4.00;;;;;;;12.79;99.46;96789.27;1767254;80;20977;-88
2022/09/29 09:34:24;;;;;;;8.13;3.27;;;;;;;12.73;99.97;96792.70;1754957;80;21341;-83
2022/09/29 09:36:58;;;;;;;5.45;4.03;;;;;;;12.87;100.00;96806.11;1742194;80;21104;-89
2022/09/29 09:39:50;;;;;;;5.62;3.12;;;;;;;12.96;100.00;96811.77;1757869;80;21028;-82
2022/09/29 09:42:32;;;;;;;7.62;3.98;;;;;;;12.98;100.00;96819.03;1757813;80;21557;-83
2022/09/29 09:45:03;;;;;;;13.13;6.20;;;;;;;12.92;98.50;96820.91;1760092;79;21498;-83
2022/09/29 09:47:43;;;;;;;8.83;5.05;;;;;;;12.95;100.00;96822.97;1772044;80;21630;-89
2022/09/29 09:50:15;;;;;;;4.95;3.00;;;;;;;12.88;100.00;96823.45;1757461;80;21160;-83
2022/09/29 09:52:51;;;;;;;30.85;22.42;;;;;;;12.89;99.25;96820.97;1773846;80;21041;-88
2022/09/29 09:55:24;;;;;;;36.17;25.25;;;;;;;12.70;98.37;96820.53;1767419;79;21053;-84
2022/09/29 09:58:17;;;;;;;21.48;13.32;;;;;;;12.58;98.21;96821.77;1757387;80;21049;-85
2022/09/29 10:01:03;;;;;;;11.73;5.35;;;;;;;12.55;98.18;96825.09;1743027;80;21068;-88
2022/09/29 10:03:29;;;;;;;6.83;4.50;;;;;;;12.50;97.95;96821.20;1726140;80;21134;-84
2022/09/29 10:05:56;;;;;;;8.48;4.17;;;;;;;12.38;97.85;96826.70;1761660;79;20942;-83
2022/09/29 10:08:28;;;;;;;5.15;3.75;;;;;;;12.31;97.49;96826.97;1763742;79;21114;-87
2022/09/29 10:10:55;;;;;;;4.47;3.83;;;;;;;12.25;96.92;96826.88;1753584;79;21088;-88
2022/09/29 10:13:23;;;;;;;6.30;3.55;;;;;;;12.17;97.45;96830.38;1755666;79;21080;-87
2022/09/29 10:16:00;;;;;;;6.85;3.98;;;;;;;12.19;98.02;96828.94;1720577;81;21048;-87
2022/09/29 10:18:41;;;;;;;13.70;5.65;;;;;;;12.24;98.42;96831.52;1751729;80;21528;-84
2022/09/29 10:21:38;;;;;;;18.98;7.72;;;;;;;12.30;98.10;96838.36;1754721;80;21016;-84
2022/09/29 10:24:09;;;;;;;10.70;4.65;;;;;;;12.34;98.69;96831.75;1752546;80;21009;-88
2022/09/29 10:26:42;;;;;;;5.33;3.10;;;;;;;12.41;98.72;96835.59;1752590;80;20949;-88
2022/09/29 10:29:28;;;;;;;6.22;3.05;;;;;;;12.48;98.45;96843.83;1752445;79;21311;-84
2022/09/29 10:32:13;;;;;;;6.28;3.70;;;;;;;12.49;98.45;96846.22;1760017;80;21380;-89
2022/09/29 10:34:41;;;;;;;5.15;2.80;;;;;;;12.49;97.72;96841.34;1753561;80;21041;-86
2022/09/29 10:37:32;;;;;;;3.95;2.90;;;;;;;12.41;97.80;96841.02;1762503;80;21004;-84
2022/09/29 10:40:11;;;;;;;7.33;3.75;;;;;;;12.47;98.25;96838.13;1763635;80;21019;-85
2022/09/29 10:42:42;;;;;;;5.97;3.02;;;;;;;12.55;97.88;96846.28;1762086;80;22191;-87
2022/09/29 10:45:14;;;;;;;7.87;3.60;;;;;;;12.64;98.20;96844.35;1728735;81;21117;-84
2022/09/29 10:47:43;;;;;;;3.92;2.67;;;;;;;12.72;98.22;96849.55;1733707;81;21153;-83
2022/09/29 10:50:15;;;;;;;;;;;;;;;12.80;96.14;96851.45;1731832;81;23004;-84
2022/09/29 10:52:52;;;;;;;7.22;2.95;;;;;;;12.62;95.57;96856.67;1729066;81;20204;-83
2022/09/29 10:55:27;;;;;;;4.53;2.90;;;;;;;12.55;94.95;96865.86;1733174;81;21311;-88
2022/09/29 10:57:55;;;;;;;4.80;2.67;;;;;;;12.37;94.68;96869.93;1731366;81;21537;-88
2022/09/29 11:00:36;;;;;;;4.65;2.83;;;;;;;12.16;93.34;96877.67;1731318;81;21463;-88
2022/09/29 11:03:21;;;;;;;5.53;2.10;;;;;;;12.05;90.29;96883.41;1731382;81;21075;-87
2022/09/29 11:06:04;;;;;;;3.02;1.35;;;;;;;12.14;89.01;96882.06;1732902;81;21499;-87
2022/09/29 11:08:30;;;;;;;3.08;1.87;;;;;;;12.24;91.66;96885.03;1732402;81;21149;-84
2022/09/29 11:11:07;;;;;;;5.00;1.90;;;;;;;12.13;91.97;96879.08;1732580;81;22210;-87
2022/09/29 11:13:38;;;;;;;4.58;1.95;;;;;;;12.10;89.03;96871.58;1737316;81;21007;-84
2022/09/29 11:16:14;;;;;;;4.55;2.02;;;;;;;12.27;90.53;96870.25;1718273;81;20995;-85
2022/09/29 11:18:40;;;;;;;5.97;2.92;;;;;;;12.34;91.34;96875.21;1699599;82;21425;-88
2022/09/29 11:21:17;;;;;;;9.28;1.85;;;;;;;12.54;92.95;96874.57;1721692;82;21861;-88
2022/09/29 11:24:11;;;;;;;4.80;2.08;;;;;;;12.83;93.08;96869.86;1700308;81;21024;-88
2022/09/29 11:26:55;;;;;;;5.90;1.87;;;;;;;12.94;92.87;96873.03;1720549;81;21010;-89
2022/09/29 11:29:45;;;;;;;4.35;1.70;;;;;;;12.93;92.97;96878.23;1728219;81;21009;-84
2022/09/29 11:32:25;;;;;;;3.95;2.00;;;;;;;13.01;93.09;96883.42;1764887;79;21112;-85
2022/09/29 11:35:15;;;;;;;4.17;2.22;;;;;;;12.81;94.71;96883.51;1729697;81;21344;-84
2022/09/29 11:38:05;;;;;;;3.75;2.17;;;;;;;12.96;93.43;96883.02;1723504;81;21130;-87
2022/09/29 11:41:01;;;;;;;3.20;2.00;;;;;;;12.67;93.79;96883.70;1755100;79;20993;-84
2022/09/29 11:43:46;;;;;;;5.28;2.12;;;;;;;12.68;94.87;96881.22;1731175;79;21123;-84
2022/09/29 11:46:36;;;;;;;3.75;2.42;;;;;;;12.73;94.90;96886.47;1754706;79;21073;-85
2022/09/29 11:49:35;;;;;;;3.98;2.00;;;;;;;12.75;93.90;96885.61;1751376;79;21073;-87
2022/09/29 11:52:27;;;;;;;3.40;2.17;;;;;;;12.60;93.84;96889.61;1722232;81;21540;-88